Time;durP1;ratioP1;P1;durP2;ratioP2;P2;SDS_P1;SDS_P2;PMS_P1;PMS_P2;Temp;Humidity;BMP_temperature;BMP_pressure;BME280_temperature;BME280_humidity;BME280_pressure;Samples;Min_cycle;Max_cycle;Signal;HPM_P1;HPM_P2
2022/07/20 00:02:21;;;;;;;5.35;4.03;;;;;;;;;;1752552;82;22273;-58
2022/07/20 00:04:47;;;;;;;5.53;4.20;;;;;;;;;;1745846;81;21053;-60
2022/07/20 00:07:14;;;;;;;5.35;4.05;;;;;;;;;;1738014;82;21104;-59
2022/07/20 00:12:26;;;;;;;6.60;4.53;;;;;;;;;;1741016;82;21526;-59
2022/07/20 00:14:52;;;;;;;5.10;4.28;;;;;;;;;;1740971;82;21066;-58
2022/07/20 00:17:18;;;;;;;5.60;3.65;;;;;;;;;;1740294;82;21108;-59
2022/07/20 00:19:44;;;;;;;5.75;4.25;;;;;;;;;;1744211;82;21060;-59
2022/07/20 00:22:53;;;;;;;7.20;4.30;;;;;;;;;;1818898;79;22848;-59
2022/07/20 00:25:19;;;;;;;5.90;3.92;;;;;;;;;;1792853;78;21674;-59
2022/07/20 00:27:45;;;;;;;5.83;4.53;;;;;;;;;;1792699;80;21126;-58
2022/07/20 00:30:12;;;;;;;6.35;4.47;;;;;;;;;;1792029;80;21605;-59
2022/07/20 00:32:39;;;;;;;5.72;4.33;;;;;;;;;;1784864;80;21028;-59
2022/07/20 00:35:08;;;;;;;6.67;4.58;;;;;;;;;;1779621;80;21034;-59
2022/07/20 00:37:34;;;;;;;6.03;4.53;;;;;;;;;;1794749;80;21043;-59
2022/07/20 00:40:01;;;;;;;6.30;4.67;;;;;;;;;;1793930;79;21031;-59
2022/07/20 00:42:27;;;;;;;5.92;4.17;;;;;;;;;;1768858;78;21103;-57
2022/07/20 00:44:53;;;;;;;8.58;4.70;;;;;;;;;;1792446;80;22060;-59
2022/07/20 00:47:19;;;;;;;7.25;4.87;;;;;;;;;;1792596;80;21060;-59
2022/07/20 00:49:45;;;;;;;7.37;4.85;;;;;;;;;;1787175;78;21001;-59
2022/07/20 00:52:13;;;;;;;7.83;5.17;;;;;;;;;;1762849;80;21084;-58
2022/07/20 00:54:39;;;;;;;8.10;4.67;;;;;;;;;;1755444;82;21096;-58
2022/07/20 00:57:05;;;;;;;8.93;5.17;;;;;;;;;;1755645;82;21064;-58
2022/07/20 00:59:33;;;;;;;7.67;4.80;;;;;;;;;;1765751;78;21349;-58
2022/07/20 01:04:48;;;;;;;7.50;4.85;;;;;;;;;;1693993;80;75297;-58
2022/07/20 01:07:15;;;;;;;6.58;4.40;;;;;;;;;;1720138;83;21182;-59
2022/07/20 01:09:42;;;;;;;7.55;5.03;;;;;;;;;;1723635;83;21078;-58
2022/07/20 01:12:09;;;;;;;7.65;5.22;;;;;;;;;;1721668;81;21010;-57
2022/07/20 01:14:36;;;;;;;7.08;5.28;;;;;;;;;;1697983;83;21048;-59
2022/07/20 01:17:02;;;;;;;9.95;5.75;;;;;;;;;;1691383;83;21547;-59
2022/07/20 01:19:29;;;;;;;6.85;4.15;;;;;;;;;;1691107;83;21080;-59
2022/07/20 01:21:55;;;;;;;6.72;4.80;;;;;;;;;;1706183;83;21632;-59
2022/07/20 01:24:21;;;;;;;7.22;5.20;;;;;;;;;;1717925;81;21077;-59
2022/07/20 01:26:47;;;;;;;5.45;4.85;;;;;;;;;;1723617;83;21068;-59
2022/07/20 01:29:14;;;;;;;6.45;4.87;;;;;;;;;;1723608;81;21088;-59
2022/07/20 01:31:40;;;;;;;7.15;4.67;;;;;;;;;;1722953;83;21079;-59
2022/07/20 01:34:06;;;;;;;7.40;4.62;;;;;;;;;;1723156;83;21076;-58
2022/07/20 01:36:32;;;;;;;7.50;5.65;;;;;;;;;;1722497;82;21049;-59
2022/07/20 01:38:58;;;;;;;6.58;4.67;;;;;;;;;;1723234;81;21068;-59
2022/07/20 01:41:25;;;;;;;5.83;4.33;;;;;;;;;;1730270;82;21550;-59
2022/07/20 01:43:51;;;;;;;5.95;4.25;;;;;;;;;;1710252;81;21077;-59
2022/07/20 01:46:17;;;;;;;5.00;4.05;;;;;;;;;;1706267;84;21060;-59
2022/07/20 01:48:44;;;;;;;5.78;4.35;;;;;;;;;;1705904;84;21050;-59
2022/07/20 01:51:10;;;;;;;5.17;4.22;;;;;;;;;;1718494;82;21484;-59
2022/07/20 01:53:37;;;;;;;4.90;4.30;;;;;;;;;;1711044;81;21068;-59
2022/07/20 01:56:03;;;;;;;5.55;4.12;;;;;;;;;;1722858;83;21072;-59
2022/07/20 01:58:29;;;;;;;6.45;4.08;;;;;;;;;;1723391;83;21112;-59
2022/07/20 02:00:57;;;;;;;6.28;3.80;;;;;;;;;;1723477;83;21551;-59
2022/07/20 02:03:23;;;;;;;6.75;4.40;;;;;;;;;;1695198;83;21092;-59
2022/07/20 02:05:49;;;;;;;6.67;4.62;;;;;;;;;;1689785;83;21108;-59
2022/07/20 02:08:15;;;;;;;7.12;4.67;;;;;;;;;;1691022;83;21053;-59
2022/07/20 02:10:41;;;;;;;7.17;4.87;;;;;;;;;;1660101;84;21051;-59
2022/07/20 02:13:07;;;;;;;6.33;5.17;;;;;;;;;;1661586;86;21079;-59
2022/07/20 02:18:18;;;;;;;5.90;4.22;;;;;;;;;;1633984;86;21105;-59
2022/07/20 02:20:44;;;;;;;6.85;4.72;;;;;;;;;;1664090;86;21083;-59
2022/07/20 02:23:11;;;;;;;6.80;4.78;;;;;;;;;;1631690;88;21531;-59
2022/07/20 02:25:37;;;;;;;6.75;5.28;;;;;;;;;;1631499;87;21372;-59
2022/07/20 02:28:04;;;;;;;6.83;4.62;;;;;;;;;;1655592;86;21054;-59
2022/07/20 02:30:30;;;;;;;6.72;4.55;;;;;;;;;;1639041;85;21055;-59
2022/07/20 02:32:58;;;;;;;7.42;5.28;;;;;;;;;;1631723;87;21585;-59
2022/07/20 02:35:24;;;;;;;8.45;5.60;;;;;;;;;;1647174;86;21105;-59
2022/07/20 02:37:50;;;;;;;8.58;4.75;;;;;;;;;;1666382;86;21075;-59
2022/07/20 02:40:18;;;;;;;8.33;4.92;;;;;;;;;;1666351;85;21626;-59
2022/07/20 02:42:44;;;;;;;6.67;5.03;;;;;;;;;;1666670;86;21142;-59
2022/07/20 02:45:10;;;;;;;6.85;5.17;;;;;;;;;;1641702;86;21558;-57
2022/07/20 02:47:43;;;;;;;6.87;5.37;;;;;;;;;;1659536;86;20982;-58
2022/07/20 02:50:09;;;;;;;6.35;4.47;;;;;;;;;;1713291;83;21599;-58
2022/07/20 02:52:36;;;;;;;7.25;4.87;;;;;;;;;;1691941;85;21124;-58
2022/07/20 02:55:03;;;;;;;7.75;4.75;;;;;;;;;;1692342;84;21080;-58
2022/07/20 02:57:29;;;;;;;6.28;4.90;;;;;;;;;;1690923;83;21165;-58
2022/07/20 02:59:55;;;;;;;6.90;4.80;;;;;;;;;;1653653;87;21701;-59
2022/07/20 03:02:22;;;;;;;7.10;5.15;;;;;;;;;;1689471;85;21069;-60
2022/07/20 03:04:48;;;;;;;5.67;4.37;;;;;;;;;;1693139;82;21119;-59
2022/07/20 03:07:14;;;;;;;7.87;4.08;;;;;;;;;;1699746;84;21100;-58
2022/07/20 03:09:40;;;;;;;5.97;3.77;;;;;;;;;;1699670;84;21096;-59
2022/07/20 03:12:07;;;;;;;5.92;3.62;;;;;;;;;;1699984;84;21060;-58
2022/07/20 03:14:34;;;;;;;5.30;3.60;;;;;;;;;;1699574;83;21578;-59
2022/07/20 03:17:00;;;;;;;5.42;4.35;;;;;;;;;;1699966;83;21557;-59
2022/07/20 03:19:26;;;;;;;6.42;3.65;;;;;;;;;;1666032;84;21076;-59
2022/07/20 03:21:52;;;;;;;5.03;3.77;;;;;;;;;;1665980;86;21006;-59
2022/07/20 03:24:18;;;;;;;4.95;3.80;;;;;;;;;;1666100;86;21588;-57
2022/07/20 03:26:45;;;;;;;4.72;3.42;;;;;;;;;;1665682;85;21033;-58
2022/07/20 03:29:12;;;;;;;5.20;3.95;;;;;;;;;;1648967;86;21077;-58
2022/07/20 03:31:37;;;;;;;4.65;3.45;;;;;;;;;;1665995;86;21065;-58
2022/07/20 03:34:04;;;;;;;5.28;3.62;;;;;;;;;;1665596;85;21053;-60
2022/07/20 03:36:31;;;;;;;5.08;3.58;;;;;;;;;;1699909;83;21056;-60
2022/07/20 03:38:57;;;;;;;5.00;3.58;;;;;;;;;;1700151;83;21074;-59
2022/07/20 03:41:23;;;;;;;4.80;3.60;;;;;;;;;;1699740;84;21111;-59
2022/07/20 03:43:50;;;;;;;5.35;3.75;;;;;;;;;;1699743;84;21028;-59
2022/07/20 03:46:17;;;;;;;5.95;3.80;;;;;;;;;;1699694;84;21115;-58
2022/07/20 03:48:44;;;;;;;5.12;3.58;;;;;;;;;;1699493;83;21571;-60
2022/07/20 03:51:11;;;;;;;4.15;3.55;;;;;;;;;;1695915;83;21053;-59
2022/07/20 03:53:37;;;;;;;4.58;3.62;;;;;;;;;;1699617;84;21090;-59
2022/07/20 03:56:04;;;;;;;4.50;3.85;;;;;;;;;;1666269;86;21069;-59
2022/07/20 03:58:30;;;;;;;6.58;3.83;;;;;;;;;;1654514;85;21084;-59
2022/07/20 04:00:56;;;;;;;4.37;3.62;;;;;;;;;;1699573;84;21606;-59
2022/07/20 04:03:22;;;;;;;5.67;3.60;;;;;;;;;;1699268;83;21072;-59
2022/07/20 04:05:48;;;;;;;4.47;3.85;;;;;;;;;;1697991;84;21040;-59
2022/07/20 04:08:16;;;;;;;4.45;3.87;;;;;;;;;;1683696;84;21149;-60
2022/07/20 04:10:42;;;;;;;4.85;3.60;;;;;;;;;;1697057;84;22477;-58
2022/07/20 04:13:08;;;;;;;6.33;3.50;;;;;;;;;;1701629;83;21057;-58
2022/07/20 04:15:34;;;;;;;5.67;3.90;;;;;;;;;;1701920;83;21085;-58
2022/07/20 04:18:00;;;;;;;5.17;3.40;;;;;;;;;;1701996;83;21131;-59
2022/07/20 04:20:26;;;;;;;5.40;3.60;;;;;;;;;;1700588;83;21132;-58
2022/07/20 04:22:52;;;;;;;3.72;3.33;;;;;;;;;;1698091;84;21536;-59
2022/07/20 04:25:19;;;;;;;4.10;3.70;;;;;;;;;;1698293;84;21112;-60
2022/07/20 04:27:45;;;;;;;3.85;2.80;;;;;;;;;;1701117;83;21087;-58
2022/07/20 04:30:13;;;;;;;4.10;3.30;;;;;;;;;;1701379;84;21548;-59
2022/07/20 04:32:40;;;;;;;4.58;3.10;;;;;;;;;;1691958;84;21136;-58
2022/07/20 04:35:07;;;;;;;5.28;3.25;;;;;;;;;;1708605;83;21101;-60
2022/07/20 04:37:35;;;;;;;4.62;3.37;;;;;;;;;;1699739;83;22116;-60
2022/07/20 04:40:02;;;;;;;5.03;3.30;;;;;;;;;;1698112;84;21044;-60
2022/07/20 04:42:29;;;;;;;5.60;3.45;;;;;;;;;;1698204;84;21053;-60
2022/07/20 04:44:55;;;;;;;5.50;2.92;;;;;;;;;;1698351;84;21087;-60
2022/07/20 04:47:21;;;;;;;4.95;3.50;;;;;;;;;;1704591;83;22209;-59
2022/07/20 04:49:47;;;;;;;4.55;3.30;;;;;;;;;;1702866;83;22007;-59
2022/07/20 04:52:13;;;;;;;5.22;3.22;;;;;;;;;;1670349;86;21485;-60
2022/07/20 04:54:41;;;;;;;4.92;3.42;;;;;;;;;;1701690;83;21060;-60
2022/07/20 04:57:07;;;;;;;4.67;3.20;;;;;;;;;;1700437;83;21080;-59
2022/07/20 04:59:33;;;;;;;4.78;3.70;;;;;;;;;;1700831;84;21111;-59
2022/07/20 05:02:00;;;;;;;5.65;3.62;;;;;;;;;;1699703;84;21088;-59
2022/07/20 05:04:27;;;;;;;4.67;3.42;;;;;;;;;;1701855;83;21096;-60
2022/07/20 05:06:54;;;;;;;4.20;3.72;;;;;;;;;;1711059;83;21102;-60
2022/07/20 05:09:21;;;;;;;4.20;3.02;;;;;;;;;;1691301;83;21579;-59
2022/07/20 05:11:47;;;;;;;4.08;3.30;;;;;;;;;;1687715;84;22100;-59
2022/07/20 05:14:13;;;;;;;7.08;3.80;;;;;;;;;;1698226;84;21583;-59
2022/07/20 05:16:40;;;;;;;4.95;3.20;;;;;;;;;;1701297;84;21132;-59
2022/07/20 05:19:07;;;;;;;3.95;3.17;;;;;;;;;;1701033;83;21055;-60
2022/07/20 05:21:33;;;;;;;4.25;3.35;;;;;;;;;;1696632;83;21049;-60
2022/07/20 05:23:59;;;;;;;4.40;3.33;;;;;;;;;;1699752;83;22276;-60
2022/07/20 05:26:25;;;;;;;4.35;3.50;;;;;;;;;;1726503;83;21048;-60
2022/07/20 05:28:52;;;;;;;5.05;3.37;;;;;;;;;;1704319;83;21141;-59
2022/07/20 05:31:18;;;;;;;4.28;3.37;;;;;;;;;;1706743;83;21029;-59
2022/07/20 05:33:45;;;;;;;5.55;2.72;;;;;;;;;;1701377;83;21009;-59
2022/07/20 05:36:11;;;;;;;5.05;3.35;;;;;;;;;;1700160;83;21622;-59
2022/07/20 05:38:37;;;;;;;5.75;3.22;;;;;;;;;;1704281;83;21052;-59
2022/07/20 05:41:03;;;;;;;9.00;2.62;;;;;;;;;;1700773;83;21115;-59
2022/07/20 05:43:31;;;;;;;4.40;2.95;;;;;;;;;;1700121;83;21627;-59
2022/07/20 05:45:57;;;;;;;6.45;3.25;;;;;;;;;;1699778;83;21041;-59
2022/07/20 05:48:24;;;;;;;5.80;3.70;;;;;;;;;;1646249;86;21112;-59
2022/07/20 05:50:51;;;;;;;6.58;3.60;;;;;;;;;;1675823;84;21148;-59
2022/07/20 05:53:18;;;;;;;5.62;3.22;;;;;;;;;;1670946;84;21057;-59
2022/07/20 05:55:46;;;;;;;4.28;3.25;;;;;;;;;;1668222;85;21100;-59
2022/07/20 05:58:12;;;;;;;3.47;2.98;;;;;;;;;;1685775;84;21102;-59
2022/07/20 06:00:38;;;;;;;3.72;3.08;;;;;;;;;;1639911;86;21096;-59
2022/07/20 06:03:04;;;;;;;5.55;3.80;;;;;;;;;;1642070;86;21116;-60
2022/07/20 06:05:31;;;;;;;4.22;3.27;;;;;;;;;;1697669;84;21081;-59
2022/07/20 06:08:03;;;;;;;4.62;3.25;;;;;;;;;;1691879;83;21052;-59
2022/07/20 06:10:27;;;;;;;3.33;2.65;;;;;;;;;;1698599;84;21529;-59
2022/07/20 06:12:55;;;;;;;4.45;3.20;;;;;;;;;;1699995;84;21568;-60
2022/07/20 06:15:24;;;;;;;3.87;2.75;;;;;;;;;;1700963;83;21077;-59
2022/07/20 06:17:51;;;;;;;7.08;3.45;;;;;;;;;;1695465;83;21072;-59
2022/07/20 06:20:17;;;;;;;4.15;3.22;;;;;;;;;;1692854;83;21064;-58
2022/07/20 06:22:44;;;;;;;4.00;2.90;;;;;;;;;;1693053;83;21156;-59
2022/07/20 06:25:11;;;;;;;5.17;2.90;;;;;;;;;;1676095;85;21106;-60
2022/07/20 06:27:38;;;;;;;3.72;2.85;;;;;;;;;;1701647;83;21509;-60
2022/07/20 06:30:06;;;;;;;4.20;3.25;;;;;;;;;;1705586;83;21049;-59
2022/07/20 06:32:32;;;;;;;5.03;3.05;;;;;;;;;;1722926;83;21107;-60
2022/07/20 06:34:58;;;;;;;4.40;3.10;;;;;;;;;;1723284;83;21083;-59
2022/07/20 06:37:25;;;;;;;6.97;3.77;;;;;;;;;;1700907;83;21024;-59
2022/07/20 06:39:51;;;;;;;5.47;3.10;;;;;;;;;;1702584;83;21076;-59
2022/07/20 06:42:17;;;;;;;4.62;3.00;;;;;;;;;;1697122;83;21066;-59
2022/07/20 06:44:44;;;;;;;5.17;3.35;;;;;;;;;;1694367;83;21099;-58
2022/07/20 06:47:10;;;;;;;4.40;3.15;;;;;;;;;;1690036;83;21078;-59
2022/07/20 06:49:37;;;;;;;4.72;3.22;;;;;;;;;;1697443;83;21599;-59
2022/07/20 06:52:04;;;;;;;5.65;3.22;;;;;;;;;;1709135;83;21025;-59
2022/07/20 06:54:30;;;;;;;6.42;3.20;;;;;;;;;;1697651;83;21073;-59
2022/07/20 06:56:56;;;;;;;5.20;3.60;;;;;;;;;;1695812;83;21056;-59
2022/07/20 06:59:23;;;;;;;4.28;3.47;;;;;;;;;;1694387;83;21568;-59
2022/07/20 07:01:49;;;;;;;4.83;3.37;;;;;;;;;;1694248;83;21508;-57
2022/07/20 07:04:15;;;;;;;4.35;3.50;;;;;;;;;;1694178;83;21009;-59
2022/07/20 07:06:41;;;;;;;7.85;3.60;;;;;;;;;;1684131;83;21134;-59
2022/07/20 07:09:08;;;;;;;3.67;3.15;;;;;;;;;;1675003;84;21121;-58
2022/07/20 07:11:35;;;;;;;4.47;3.60;;;;;;;;;;1681790;84;20993;-59
2022/07/20 07:14:03;;;;;;;5.28;3.27;;;;;;;;;;1675398;84;21063;-58
2022/07/20 07:16:30;;;;;;;3.65;3.02;;;;;;;;;;1674632;84;21608;-59
2022/07/20 07:18:57;;;;;;;4.70;4.20;;;;;;;;;;1673579;84;21087;-61
2022/07/20 07:21:25;;;;;;;7.37;3.55;;;;;;;;;;1677379;84;21064;-60
2022/07/20 07:23:51;;;;;;;5.47;3.25;;;;;;;;;;1669356;84;21116;-59
2022/07/20 07:26:18;;;;;;;33.98;28.60;;;;;;;;;;1668650;84;22198;-59
2022/07/20 07:28:44;;;;;;;36.50;32.73;;;;;;;;;;1691141;84;21561;-59
2022/07/20 07:31:10;;;;;;;32.98;29.63;;;;;;;;;;1675937;84;21006;-59
2022/07/20 07:33:36;;;;;;;7.30;4.33;;;;;;;;;;1674743;84;21568;-60
2022/07/20 07:36:02;;;;;;;5.60;3.60;;;;;;;;;;1671645;84;21597;-60
2022/07/20 07:38:29;;;;;;;5.10;3.55;;;;;;;;;;1671046;84;21013;-60
2022/07/20 07:40:56;;;;;;;6.25;3.77;;;;;;;;;;1670777;84;21133;-60
2022/07/20 07:43:22;;;;;;;4.00;3.40;;;;;;;;;;1672990;84;20977;-60
2022/07/20 07:45:48;;;;;;;5.05;3.52;;;;;;;;;;1671823;84;21048;-59
2022/07/20 07:48:14;;;;;;;4.42;3.35;;;;;;;;;;1672968;84;21868;-60
2022/07/20 07:50:41;;;;;;;4.17;3.37;;;;;;;;;;1671438;84;21633;-59
2022/07/20 07:53:07;;;;;;;5.55;3.60;;;;;;;;;;1672125;86;21057;-59
2022/07/20 07:55:35;;;;;;;4.67;4.03;;;;;;;;;;1672842;84;21100;-60
2022/07/20 07:58:01;;;;;;;6.95;4.17;;;;;;;;;;1668588;84;21060;-59
2022/07/20 08:00:27;;;;;;;6.37;3.87;;;;;;;;;;1662403;84;21052;-60
2022/07/20 08:02:54;;;;;;;5.42;3.50;;;;;;;;;;1670691;84;21127;-60
2022/07/20 08:05:21;;;;;;;6.03;3.60;;;;;;;;;;1670922;84;21528;-60
2022/07/20 08:07:48;;;;;;;8.53;4.60;;;;;;;;;;1691709;83;21552;-60
2022/07/20 08:10:14;;;;;;;4.75;3.58;;;;;;;;;;1696674;83;21040;-60
2022/07/20 08:12:43;;;;;;;5.37;3.70;;;;;;;;;;1690846;83;21595;-61
2022/07/20 08:15:10;;;;;;;4.47;3.30;;;;;;;;;;1691970;83;21053;-59
2022/07/20 08:17:38;;;;;;;6.97;3.85;;;;;;;;;;1701947;83;21569;-60
2022/07/20 08:20:06;;;;;;;7.70;3.70;;;;;;;;;;1693412;85;21088;-59
2022/07/20 08:22:33;;;;;;;4.87;3.87;;;;;;;;;;1693775;83;21492;-59
2022/07/20 08:24:59;;;;;;;4.33;3.62;;;;;;;;;;1693317;85;21061;-61
2022/07/20 08:27:26;;;;;;;5.90;4.67;;;;;;;;;;1691422;83;21068;-60
2022/07/20 08:29:58;;;;;;;4.78;3.60;;;;;;;;;;1696473;83;21085;-59
2022/07/20 08:32:21;;;;;;;5.35;3.70;;;;;;;;;;1690755;83;21548;-60
2022/07/20 08:34:47;;;;;;;6.58;3.90;;;;;;;;;;1689072;83;20997;-60
2022/07/20 08:37:13;;;;;;;6.10;4.10;;;;;;;;;;1693434;83;21084;-60
2022/07/20 08:39:39;;;;;;;6.10;4.08;;;;;;;;;;1699537;83;21560;-60
2022/07/20 08:42:06;;;;;;;4.17;3.35;;;;;;;;;;1693087;83;21084;-60
2022/07/20 08:44:32;;;;;;;6.08;3.52;;;;;;;;;;1716609;83;21068;-59
2022/07/20 08:46:58;;;;;;;5.08;3.50;;;;;;;;;;1694745;83;21072;-60
2022/07/20 08:49:24;;;;;;;4.58;3.90;;;;;;;;;;1660869;85;21101;-60
2022/07/20 08:51:51;;;;;;;7.17;4.00;;;;;;;;;;1633436;86;21088;-60
2022/07/20 08:54:17;;;;;;;5.10;3.40;;;;;;;;;;1700290;83;21580;-60
2022/07/20 08:56:43;;;;;;;5.22;3.42;;;;;;;;;;1693749;83;21116;-59
2022/07/20 08:59:09;;;;;;;6.20;3.62;;;;;;;;;;1706253;83;21528;-60
2022/07/20 09:01:36;;;;;;;6.35;3.72;;;;;;;;;;1705798;83;21084;-60
2022/07/20 09:04:04;;;;;;;4.87;3.90;;;;;;;;;;1682641;83;21057;-60
2022/07/20 09:06:30;;;;;;;5.90;3.95;;;;;;;;;;1690422;83;21588;-58
2022/07/20 09:09:00;;;;;;;5.45;4.20;;;;;;;;;;1704823;83;20997;-59
2022/07/20 09:11:26;;;;;;;5.95;4.00;;;;;;;;;;1648213;86;22218;-58
2022/07/20 09:13:53;;;;;;;10.88;5.95;;;;;;;;;;1651932;86;21124;-59
2022/07/20 09:16:40;;;;;;;15.90;11.57;;;;;;;;;;1661594;86;21001;-59
2022/07/20 09:19:03;;;;;;;9.48;7.10;;;;;;;;;;1691608;83;21053;-60
2022/07/20 09:21:31;;;;;;;5.45;4.00;;;;;;;;;;1691591;83;22162;-59
2022/07/20 09:24:03;;;;;;;4.87;3.65;;;;;;;;;;1695369;83;21101;-59
2022/07/20 09:26:29;;;;;;;8.95;4.20;;;;;;;;;;1707912;83;21032;-59
2022/07/20 09:28:57;;;;;;;5.95;4.15;;;;;;;;;;1703067;83;21529;-60
2022/07/20 09:31:36;;;;;;;4.90;3.85;;;;;;;;;;1698494;83;21184;-60
2022/07/20 09:34:14;;;;;;;6.70;3.77;;;;;;;;;;1701787;83;21599;-60
2022/07/20 09:36:41;;;;;;;9.48;4.20;;;;;;;;;;1698204;82;21025;-59
2022/07/20 09:39:09;;;;;;;6.97;3.65;;;;;;;;;;1711939;83;21033;-61
2022/07/20 09:41:36;;;;;;;6.10;4.00;;;;;;;;;;1710759;83;21108;-60
2022/07/20 09:44:02;;;;;;;6.45;3.90;;;;;;;;;;1701679;83;21114;-60
2022/07/20 09:46:34;;;;;;;4.53;3.77;;;;;;;;;;1668149;84;21125;-60
2022/07/20 09:48:58;;;;;;;5.45;3.58;;;;;;;;;;1703454;83;21568;-60
2022/07/20 09:51:27;;;;;;;5.85;3.60;;;;;;;;;;1700471;83;21018;-60
2022/07/20 09:53:54;;;;;;;5.83;3.83;;;;;;;;;;1700963;83;21009;-60
2022/07/20 09:56:21;;;;;;;4.53;3.55;;;;;;;;;;1696074;83;21016;-60
2022/07/20 09:58:49;;;;;;;5.15;3.83;;;;;;;;;;1700787;83;21128;-59
2022/07/20 10:01:17;;;;;;;5.30;3.98;;;;;;;;;;1700581;83;21076;-61
2022/07/20 10:03:44;;;;;;;24.12;18.35;;;;;;;;;;1701570;84;21083;-60
2022/07/20 10:06:10;;;;;;;31.25;22.30;;;;;;;;;;1698677;83;21564;-60
2022/07/20 10:08:38;;;;;;;12.35;9.15;;;;;;;;;;1702783;83;21555;-61
2022/07/20 10:11:05;;;;;;;18.42;15.15;;;;;;;;;;1697109;83;21033;-60
2022/07/20 10:13:31;;;;;;;15.90;13.72;;;;;;;;;;1702218;83;21081;-61
2022/07/20 10:16:06;;;;;;;5.30;4.35;;;;;;;;;;1703282;82;21043;-60
2022/07/20 10:18:31;;;;;;;6.33;3.77;;;;;;;;;;1698381;83;21507;-60
2022/07/20 10:20:59;;;;;;;7.55;5.05;;;;;;;;;;1699320;83;21135;-59
2022/07/20 10:23:26;;;;;;;5.78;4.03;;;;;;;;;;1698565;83;21104;-60
2022/07/20 10:25:53;;;;;;;6.83;3.70;;;;;;;;;;1698164;83;21092;-60
2022/07/20 10:28:26;;;;;;;6.35;4.03;;;;;;;;;;1702393;83;21111;-61
2022/07/20 10:30:53;;;;;;;6.20;3.90;;;;;;;;;;1707933;83;21522;-61
2022/07/20 10:33:20;;;;;;;5.08;3.87;;;;;;;;;;1701293;83;21048;-61
2022/07/20 10:35:47;;;;;;;7.33;3.72;;;;;;;;;;1695569;84;21001;-61
2022/07/20 10:38:14;;;;;;;4.92;4.12;;;;;;;;;;1671834;86;21092;-61
2022/07/20 10:41:31;;;;;;;3.90;3.33;;;;;;;;;;1671753;86;21069;-61
2022/07/20 10:43:14;;;;;;;7.30;4.08;;;;;;;;;;1660920;83;21712;-60
2022/07/20 10:45:40;;;;;;;4.20;3.37;;;;;;;;;;1698054;83;21084;-60
2022/07/20 10:48:12;;;;;;;5.08;3.60;;;;;;;;;;1710929;83;21097;-60
2022/07/20 10:50:40;;;;;;;9.00;3.45;;;;;;;;;;1701000;83;21068;-60
2022/07/20 10:53:13;;;;;;;9.00;4.30;;;;;;;;;;1699458;83;21605;-60
2022/07/20 10:55:51;;;;;;;5.95;3.47;;;;;;;;;;1702086;83;21544;-60
2022/07/20 10:58:17;;;;;;;5.65;3.55;;;;;;;;;;1697132;83;21048;-60
2022/07/20 11:00:49;;;;;;;7.05;3.50;;;;;;;;;;1694326;83;21013;-60
2022/07/20 11:03:17;;;;;;;5.78;3.65;;;;;;;;;;1691810;84;21073;-59
2022/07/20 11:05:44;;;;;;;4.45;3.37;;;;;;;;;;1696105;83;21017;-60
2022/07/20 11:08:10;;;;;;;4.67;4.10;;;;;;;;;;1694224;83;21076;-59
2022/07/20 11:10:37;;;;;;;9.18;4.33;;;;;;;;;;1699766;83;21489;-60
2022/07/20 11:13:04;;;;;;;5.03;3.62;;;;;;;;;;1696899;83;21065;-61
2022/07/20 11:15:33;;;;;;;6.25;3.67;;;;;;;;;;1708237;83;21116;-60
2022/07/20 11:18:00;;;;;;;5.53;4.15;;;;;;;;;;1694465;83;21108;-60
2022/07/20 11:20:28;;;;;;;9.03;4.03;;;;;;;;;;1695560;83;21049;-59
2022/07/20 11:22:56;;;;;;;6.28;4.10;;;;;;;;;;1690219;83;21032;-59
2022/07/20 11:25:24;;;;;;;7.40;4.15;;;;;;;;;;1692839;83;21031;-59
2022/07/20 11:28:01;;;;;;;6.85;3.58;;;;;;;;;;1687796;83;21058;-59
2022/07/20 11:30:31;;;;;;;7.20;3.95;;;;;;;;;;1694514;83;21112;-59
2022/07/20 11:32:58;;;;;;;4.85;3.60;;;;;;;;;;1691702;83;21116;-59
2022/07/20 11:35:24;;;;;;;6.35;3.90;;;;;;;;;;1695205;83;21096;-60
2022/07/20 11:37:52;;;;;;;5.67;3.90;;;;;;;;;;1695172;83;21568;-60
2022/07/20 11:40:20;;;;;;;17.92;15.95;;;;;;;;;;1686738;83;21022;-60
2022/07/20 11:43:06;;;;;;;7.58;5.87;;;;;;;;;;1657059;85;21647;-60
2022/07/20 11:45:32;;;;;;;8.45;4.12;;;;;;;;;;1665911;84;21185;-60
2022/07/20 11:47:58;;;;;;;7.28;4.00;;;;;;;;;;1659784;84;21552;-60
2022/07/20 11:50:26;;;;;;;6.25;4.10;;;;;;;;;;1633440;86;21092;-61
2022/07/20 11:52:52;;;;;;;7.20;4.12;;;;;;;;;;1644312;87;21038;-61
2022/07/20 11:55:20;;;;;;;6.03;3.77;;;;;;;;;;1648646;87;21074;-61
2022/07/20 11:57:48;;;;;;;11.10;4.60;;;;;;;;;;1661561;84;21550;-61
2022/07/20 12:00:16;;;;;;;7.53;4.35;;;;;;;;;;1692694;84;21517;-61
2022/07/20 12:02:42;;;;;;;8.55;4.03;;;;;;;;;;1692991;83;21112;-60
2022/07/20 12:05:08;;;;;;;6.25;3.92;;;;;;;;;;1695430;83;21084;-60
2022/07/20 12:10:22;;;;;;;4.95;3.90;;;;;;;;;;1672562;84;21064;-61
2022/07/20 12:12:50;;;;;;;6.22;4.00;;;;;;;;;;1666357;85;22302;-61
2022/07/20 12:15:16;;;;;;;6.37;4.60;;;;;;;;;;1704259;83;21088;-61
2022/07/20 12:17:47;;;;;;;5.62;4.15;;;;;;;;;;1693109;83;21120;-61
2022/07/20 12:20:14;;;;;;;7.67;4.55;;;;;;;;;;1693763;85;21076;-62
2022/07/20 12:22:43;;;;;;;5.33;4.00;;;;;;;;;;1695309;83;21521;-59
2022/07/20 12:25:10;;;;;;;6.00;4.03;;;;;;;;;;1695875;83;21097;-60
2022/07/20 12:27:37;;;;;;;7.58;4.05;;;;;;;;;;1688315;83;21072;-61
2022/07/20 12:30:15;;;;;;;6.90;4.30;;;;;;;;;;1717412;83;21120;-61
2022/07/20 12:32:41;;;;;;;8.78;4.45;;;;;;;;;;1693254;83;22128;-60
2022/07/20 12:35:08;;;;;;;13.55;9.23;;;;;;;;;;1693661;84;21137;-61
2022/07/20 12:40:01;;;;;;;8.10;4.10;;;;;;;;;;1801214;79;23021;-60
2022/07/20 12:42:27;;;;;;;8.10;4.37;;;;;;;;;;1762426;80;21516;-60
2022/07/20 12:44:57;;;;;;;5.45;3.90;;;;;;;;;;1758440;80;22154;-62
2022/07/20 12:47:24;;;;;;;8.93;3.80;;;;;;;;;;1757659;81;21065;-60
2022/07/20 12:49:50;;;;;;;4.80;3.95;;;;;;;;;;1757823;81;21059;-60
2022/07/20 12:52:16;;;;;;;8.45;4.28;;;;;;;;;;1762583;80;21039;-59
2022/07/20 12:54:44;;;;;;;6.65;4.00;;;;;;;;;;1757139;80;21578;-61
2022/07/20 12:57:10;;;;;;;5.58;3.70;;;;;;;;;;1759320;80;21060;-60
2022/07/20 12:59:36;;;;;;;6.60;4.37;;;;;;;;;;1760718;81;21603;-60
2022/07/20 13:02:03;;;;;;;6.22;3.75;;;;;;;;;;1745154;81;21106;-61
2022/07/20 13:04:30;;;;;;;9.68;7.20;;;;;;;;;;1728229;81;21103;-60
2022/07/20 13:06:56;;;;;;;12.78;9.63;;;;;;;;;;1737654;81;21063;-59
2022/07/20 13:09:23;;;;;;;19.95;17.17;;;;;;;;;;1729875;82;21052;-62
2022/07/20 13:11:51;;;;;;;6.35;4.20;;;;;;;;;;1726664;81;21096;-60
2022/07/20 13:14:20;;;;;;;9.50;4.35;;;;;;;;;;1730244;82;21498;-60
2022/07/20 13:16:47;;;;;;;8.45;4.00;;;;;;;;;;1714077;82;21043;-60
2022/07/20 13:19:14;;;;;;;9.50;4.10;;;;;;;;;;1717565;81;21009;-61
2022/07/20 13:21:41;;;;;;;5.90;4.37;;;;;;;;;;1724310;82;21077;-60
2022/07/20 13:24:08;;;;;;;8.35;3.95;;;;;;;;;;1728850;83;21066;-60
2022/07/20 13:26:34;;;;;;;7.47;3.87;;;;;;;;;;1725702;82;21096;-58
2022/07/20 13:29:01;;;;;;;7.42;3.70;;;;;;;;;;1723099;81;21024;-59
2022/07/20 13:31:28;;;;;;;5.30;3.80;;;;;;;;;;1728009;82;21064;-59
2022/07/20 13:33:54;;;;;;;6.70;3.85;;;;;;;;;;1724204;81;21024;-59
2022/07/20 13:36:22;;;;;;;5.45;4.30;;;;;;;;;;1717688;82;21078;-60
2022/07/20 13:38:52;;;;;;;4.75;3.67;;;;;;;;;;1704344;82;21076;-60
2022/07/20 13:41:17;;;;;;;11.40;4.60;;;;;;;;;;1697739;82;21084;-60
2022/07/20 13:43:43;;;;;;;7.00;3.72;;;;;;;;;;1693863;82;21033;-59
2022/07/20 13:46:11;;;;;;;5.78;3.50;;;;;;;;;;1695269;82;21071;-59
2022/07/20 13:48:40;;;;;;;4.35;3.40;;;;;;;;;;1704167;82;21020;-59
2022/07/20 13:51:06;;;;;;;6.33;3.77;;;;;;;;;;1706462;82;22334;-61
2022/07/20 13:53:33;;;;;;;9.30;4.40;;;;;;;;;;1713512;82;21086;-59
2022/07/20 13:55:59;;;;;;;5.83;3.80;;;;;;;;;;1707722;82;21021;-59
2022/07/20 13:58:25;;;;;;;7.90;4.25;;;;;;;;;;1706441;84;21056;-59
2022/07/20 14:00:52;;;;;;;5.65;4.08;;;;;;;;;;1710480;82;21206;-59
2022/07/20 14:03:18;;;;;;;6.05;3.90;;;;;;;;;;1693476;84;21893;-59
2022/07/20 14:05:45;;;;;;;7.30;4.20;;;;;;;;;;1698598;84;21064;-59
2022/07/20 14:08:13;;;;;;;8.60;4.65;;;;;;;;;;1697885;82;21546;-59
2022/07/20 14:10:39;;;;;;;6.25;4.92;;;;;;;;;;1697795;84;21091;-59
2022/07/20 14:13:08;;;;;;;6.35;4.30;;;;;;;;;;1698697;84;21145;-59
2022/07/20 14:15:35;;;;;;;7.10;4.80;;;;;;;;;;1697285;84;21057;-59
2022/07/20 14:18:02;;;;;;;6.67;4.60;;;;;;;;;;1701359;84;21120;-58
2022/07/20 14:20:28;;;;;;;6.05;4.40;;;;;;;;;;1699165;84;21141;-59
2022/07/20 14:22:54;;;;;;;8.80;4.60;;;;;;;;;;1701923;82;21072;-59
2022/07/20 14:25:21;;;;;;;8.55;4.70;;;;;;;;;;1697727;82;21651;-59
2022/07/20 14:27:47;;;;;;;8.25;5.12;;;;;;;;;;1703393;82;21682;-59
2022/07/20 14:30:14;;;;;;;13.18;6.17;;;;;;;;;;1697062;84;21090;-59
2022/07/20 14:32:40;;;;;;;11.50;5.58;;;;;;;;;;1700171;82;21457;-58
2022/07/20 14:35:07;;;;;;;7.03;4.92;;;;;;;;;;1700259;84;21119;-60
2022/07/20 14:37:34;;;;;;;9.55;4.58;;;;;;;;;;1701645;84;21096;-59
2022/07/20 14:40:00;;;;;;;5.55;4.12;;;;;;;;;;1699393;84;21063;-59
2022/07/20 14:42:27;;;;;;;6.60;4.90;;;;;;;;;;1703535;82;21751;-59
2022/07/20 14:44:54;;;;;;;10.63;7.55;;;;;;;;;;1706244;84;21059;-58
2022/07/20 14:47:21;;;;;;;7.72;5.20;;;;;;;;;;1699960;84;21166;-59
2022/07/20 14:49:48;;;;;;;7.35;4.97;;;;;;;;;;1701305;82;21032;-59
2022/07/20 14:52:15;;;;;;;10.72;5.08;;;;;;;;;;1698766;82;21479;-60
2022/07/20 14:54:42;;;;;;;8.93;5.47;;;;;;;;;;1700511;84;21516;-59
2022/07/20 14:57:08;;;;;;;8.10;4.97;;;;;;;;;;1696082;84;21135;-59